Time;durP1;ratioP1;P1;durP2;ratioP2;P2;SDS_P1;SDS_P2;PMS_P1;PMS_P2;Temp;Humidity;BMP_temperature;BMP_pressure;BME280_temperature;BME280_humidity;BME280_pressure;Samples;Min_cycle;Max_cycle;Signal;HPM_P1;HPM_P2
2021/07/13 00:01:13;;;;;;;6.63;4.22;;;19.80;99.90;;;;;;5048432;28;20048;-67
2021/07/13 00:03:41;;;;;;;6.32;4.32;;;20.00;99.90;;;;;;5048821;28;20105;-67
2021/07/13 00:06:08;;;;;;;7.68;4.80;;;20.10;99.90;;;;;;5048760;28;20501;-68
2021/07/13 00:08:35;;;;;;;7.50;4.35;;;20.00;99.90;;;;;;5048064;28;20757;-67
2021/07/13 00:11:02;;;;;;;9.35;4.97;;;20.00;99.90;;;;;;5048861;28;20101;-67
2021/07/13 00:13:29;;;;;;;7.22;4.80;;;19.90;99.90;;;;;;5048666;28;20052;-67
2021/07/13 00:15:56;;;;;;;7.30;4.68;;;19.90;99.90;;;;;;5047562;28;20582;-67
2021/07/13 00:18:23;;;;;;;6.45;4.78;;;19.90;99.90;;;;;;5047870;28;20083;-67
2021/07/13 00:20:52;;;;;;;8.35;4.43;;;19.90;99.90;;;;;;5048093;28;20504;-67
2021/07/13 00:23:19;;;;;;;6.65;4.80;;;19.90;99.90;;;;;;5047424;28;20040;-67
2021/07/13 00:25:46;;;;;;;9.68;5.00;;;19.80;99.90;;;;;;5047988;28;20541;-67
2021/07/13 00:28:12;;;;;;;9.13;5.13;;;19.80;99.90;;;;;;5046835;28;20149;-67
2021/07/13 00:30:39;;;;;;;6.75;4.50;;;19.90;99.90;;;;;;5048432;28;20137;-67
2021/07/13 00:33:06;;;;;;;8.18;4.53;;;19.80;99.90;;;;;;5047861;28;20053;-67
2021/07/13 00:35:33;;;;;;;7.40;4.97;;;19.80;99.90;;;;;;5047702;28;20483;-66
2021/07/13 00:38:02;;;;;;;7.70;5.10;;;19.80;99.90;;;;;;5046935;28;20048;-67
2021/07/13 00:40:29;;;;;;;12.45;5.53;;;19.80;99.90;;;;;;5047368;28;20057;-67
2021/07/13 00:42:56;;;;;;;5.93;4.40;;;19.70;99.90;;;;;;5051416;28;20098;-67
2021/07/13 00:45:24;;;;;;;9.20;5.05;;;19.60;99.90;;;;;;5051595;28;20110;-67
2021/07/13 00:47:52;;;;;;;10.95;5.28;;;19.70;99.90;;;;;;5053042;28;20045;-67
2021/07/13 00:50:20;;;;;;;7.47;4.95;;;19.70;99.90;;;;;;5052528;28;20072;-67
2021/07/13 00:52:48;;;;;;;7.53;5.15;;;19.60;99.90;;;;;;5050757;28;20098;-67
2021/07/13 00:55:17;;;;;;;8.27;4.45;;;19.50;99.90;;;;;;5051388;28;20102;-67
2021/07/13 00:57:44;;;;;;;7.40;4.50;;;19.50;99.90;;;;;;5051819;28;20126;-67
2021/07/13 01:00:14;;;;;;;7.82;5.15;;;19.40;99.90;;;;;;5051433;28;20452;-67
2021/07/13 01:02:42;;;;;;;9.68;4.82;;;19.50;99.90;;;;;;5051389;28;20083;-67
2021/07/13 01:05:13;;;;;;;12.30;5.00;;;19.30;99.90;;;;;;5051565;28;20617;-66
2021/07/13 01:07:51;;;;;;;11.05;4.68;;;19.40;99.90;;;;;;5050431;28;20052;-66
2021/07/13 01:10:29;;;;;;;9.27;4.22;;;19.40;99.90;;;;;;5050689;28;20044;-67
2021/07/13 01:13:05;;;;;;;8.57;4.90;;;19.40;99.90;;;;;;5050671;28;20123;-67
2021/07/13 01:15:37;;;;;;;9.23;5.07;;;19.30;99.90;;;;;;5051360;28;20512;-67
2021/07/13 01:18:08;;;;;;;8.57;4.88;;;19.20;99.90;;;;;;5051763;28;20071;-67
2021/07/13 01:21:13;;;;;;;14.75;5.47;;;19.20;99.90;;;;;;5050538;28;20057;-66
2021/07/13 01:23:51;;;;;;;7.15;4.60;;;19.20;99.90;;;;;;5051206;28;20574;-67
2021/07/13 01:26:31;;;;;;;10.18;5.40;;;19.10;99.90;;;;;;5050704;28;20153;-67
2021/07/13 01:29:04;;;;;;;7.90;5.55;;;19.00;99.90;;;;;;5050174;28;20794;-67
2021/07/13 01:31:32;;;;;;;8.30;5.15;;;19.00;99.90;;;;;;5051156;28;20098;-67
2021/07/13 01:34:04;;;;;;;11.82;5.38;;;19.00;99.90;;;;;;5050791;28;20501;-67
2021/07/13 01:36:33;;;;;;;9.35;4.60;;;18.90;99.90;;;;;;5050966;28;20154;-67
2021/07/13 01:39:02;;;;;;;9.63;5.35;;;18.90;99.90;;;;;;5050578;28;20198;-67
2021/07/13 01:41:32;;;;;;;7.88;5.60;;;18.90;99.90;;;;;;5051019;28;20106;-67
2021/07/13 01:44:01;;;;;;;8.45;4.97;;;18.90;99.90;;;;;;5050759;28;20141;-66
2021/07/13 01:46:29;;;;;;;13.75;6.32;;;18.90;99.90;;;;;;5051049;28;20052;-66
2021/07/13 01:48:58;;;;;;;11.38;6.80;;;18.90;99.90;;;;;;5050318;28;20529;-67
2021/07/13 01:51:26;;;;;;;9.68;5.18;;;18.80;99.90;;;;;;5048769;28;20102;-67
2021/07/13 01:53:55;;;;;;;9.07;5.15;;;18.70;99.90;;;;;;5050904;28;20155;-67
2021/07/13 01:56:23;;;;;;;7.47;5.28;;;18.70;99.90;;;;;;5053073;28;20076;-67
2021/07/13 01:58:51;;;;;;;8.60;5.00;;;18.60;99.90;;;;;;5053638;28;20101;-67
2021/07/13 02:01:23;;;;;;;10.98;5.30;;;18.60;99.90;;;;;;5053754;28;20512;-66
2021/07/13 02:03:52;;;;;;;9.30;5.35;;;18.70;99.90;;;;;;5052403;28;20076;-67
2021/07/13 02:06:24;;;;;;;8.13;5.80;;;18.60;99.90;;;;;;5053394;28;20140;-67
2021/07/13 02:08:53;;;;;;;6.70;5.07;;;18.60;99.90;;;;;;5050942;28;20055;-67
2021/07/13 02:11:20;;;;;;;8.18;5.65;;;18.60;99.90;;;;;;5050970;28;20044;-67
2021/07/13 02:13:47;;;;;;;7.80;5.28;;;18.70;99.90;;;;;;5052170;28;20148;-67
2021/07/13 02:16:15;;;;;;;9.50;5.22;;;18.60;99.90;;;;;;5051378;28;20044;-67
2021/07/13 02:18:43;;;;;;;8.00;4.90;;;18.60;99.90;;;;;;5052304;28;20098;-67
2021/07/13 02:21:10;;;;;;;9.25;5.30;;;18.60;99.90;;;;;;5052908;28;20144;-67
2021/07/13 02:23:37;;;;;;;9.02;5.60;;;18.60;99.90;;;;;;5052551;28;20440;-67
2021/07/13 02:26:05;;;;;;;8.60;5.03;;;18.60;99.90;;;;;;5052314;28;20088;-67
2021/07/13 02:28:37;;;;;;;7.90;4.95;;;18.60;99.90;;;;;;5051853;28;20118;-67
2021/07/13 02:31:11;;;;;;;9.20;5.07;;;18.60;99.90;;;;;;5053028;28;20121;-66
2021/07/13 02:33:46;;;;;;;8.10;5.85;;;18.70;99.90;;;;;;5053093;28;20063;-67
2021/07/13 02:36:17;;;;;;;10.02;6.18;;;18.90;99.90;;;;;;5052911;28;20165;-67
2021/07/13 02:38:46;;;;;;;9.27;6.07;;;18.80;99.90;;;;;;5053256;28;20102;-67
2021/07/13 02:41:14;;;;;;;8.93;5.22;;;18.70;99.90;;;;;;5053394;28;20404;-67
2021/07/13 02:43:42;;;;;;;8.38;5.53;;;18.70;99.90;;;;;;5052768;28;20058;-67
2021/07/13 02:46:09;;;;;;;8.07;5.55;;;18.60;99.90;;;;;;5052183;28;20099;-67
2021/07/13 02:48:37;;;;;;;7.25;5.47;;;18.70;99.90;;;;;;5053469;28;20052;-67
2021/07/13 02:51:06;;;;;;;9.85;5.70;;;18.60;99.90;;;;;;5052281;28;20052;-67
2021/07/13 02:53:35;;;;;;;10.13;5.70;;;18.60;99.90;;;;;;5051364;28;21013;-67
2021/07/13 02:56:04;;;;;;;10.40;5.78;;;18.50;99.90;;;;;;5052507;28;20084;-67
2021/07/13 02:58:32;;;;;;;9.52;5.50;;;18.50;99.90;;;;;;5051026;28;20083;-67
2021/07/13 03:01:01;;;;;;;8.68;5.22;;;18.60;99.90;;;;;;5052104;28;20580;-67
2021/07/13 03:03:28;;;;;;;14.07;6.38;;;18.60;99.90;;;;;;5049506;28;20090;-67
2021/07/13 03:05:57;;;;;;;10.10;5.05;;;18.60;99.90;;;;;;5051035;28;20040;-67
2021/07/13 03:08:27;;;;;;;9.77;5.82;;;18.60;99.90;;;;;;5049746;28;20133;-67
2021/07/13 03:10:57;;;;;;;7.47;5.05;;;18.60;99.90;;;;;;5051123;28;20044;-67
2021/07/13 03:13:24;;;;;;;9.77;5.82;;;18.70;99.90;;;;;;5050895;28;20138;-67
2021/07/13 03:15:52;;;;;;;8.93;6.03;;;18.60;99.90;;;;;;5050592;28;20107;-67
2021/07/13 03:18:21;;;;;;;9.52;5.32;;;18.60;99.90;;;;;;5051028;28;20052;-67
2021/07/13 03:20:50;;;;;;;9.18;5.57;;;18.60;99.90;;;;;;5051042;28;20493;-67
2021/07/13 03:23:18;;;;;;;11.23;5.68;;;18.60;99.90;;;;;;5050456;28;20052;-67
2021/07/13 03:25:48;;;;;;;11.18;6.32;;;18.60;99.90;;;;;;5051972;28;20063;-67
2021/07/13 03:28:16;;;;;;;7.57;5.28;;;18.70;99.90;;;;;;5051193;28;20086;-67
2021/07/13 03:30:45;;;;;;;11.13;5.55;;;18.70;99.90;;;;;;5052583;28;20513;-67
2021/07/13 03:33:13;;;;;;;8.02;5.25;;;18.60;99.90;;;;;;5051078;28;20049;-67
2021/07/13 03:35:40;;;;;;;10.85;5.50;;;18.70;99.90;;;;;;5051039;28;20080;-66
2021/07/13 03:38:08;;;;;;;6.97;4.90;;;18.70;99.90;;;;;;5050306;28;20811;-66
2021/07/13 03:40:35;;;;;;;11.75;5.85;;;18.70;99.90;;;;;;5051260;28;20501;-67
2021/07/13 03:43:04;;;;;;;9.40;5.22;;;18.60;99.90;;;;;;5050854;28;20056;-67
2021/07/13 03:45:31;;;;;;;8.77;5.13;;;18.60;99.90;;;;;;5050196;28;20217;-67
2021/07/13 03:48:01;;;;;;;8.88;5.32;;;18.60;99.90;;;;;;5050105;28;20066;-66
2021/07/13 03:50:31;;;;;;;9.00;5.18;;;18.60;99.90;;;;;;5049937;28;20059;-67
2021/07/13 03:52:58;;;;;;;7.25;4.63;;;18.60;99.90;;;;;;5050759;28;20060;-67
2021/07/13 03:55:25;;;;;;;8.32;4.60;;;18.60;99.90;;;;;;5050886;28;20052;-67
2021/07/13 03:57:54;;;;;;;7.15;4.50;;;18.70;99.90;;;;;;5049591;28;20092;-68
2021/07/13 04:00:27;;;;;;;7.38;4.85;;;18.60;99.90;;;;;;5050771;28;20059;-67
2021/07/13 04:02:54;;;;;;;7.93;5.00;;;18.70;99.90;;;;;;5051467;28;20052;-67
2021/07/13 04:05:21;;;;;;;7.63;4.72;;;18.70;99.90;;;;;;5051754;28;20076;-67
2021/07/13 04:07:48;;;;;;;8.60;4.75;;;18.80;99.90;;;;;;5050444;28;20571;-67
2021/07/13 04:10:15;;;;;;;11.13;5.03;;;18.90;99.90;;;;;;5051218;28;20478;-67
2021/07/13 04:12:43;;;;;;;10.50;5.32;;;18.90;99.90;;;;;;5051907;28;20056;-67
2021/07/13 04:15:12;;;;;;;7.18;4.68;;;18.90;99.90;;;;;;5051407;28;20079;-67
2021/07/13 04:17:41;;;;;;;9.82;5.10;;;18.90;99.90;;;;;;5052207;28;20052;-67
2021/07/13 04:20:09;;;;;;;7.55;5.38;;;19.00;99.90;;;;;;5055704;28;20466;-67
2021/07/13 04:22:37;;;;;;;7.78;5.13;;;19.00;99.90;;;;;;5055426;28;20316;-67
2021/07/13 04:25:04;;;;;;;11.73;5.18;;;19.00;99.90;;;;;;5055490;28;20102;-67
2021/07/13 04:27:32;;;;;;;6.88;4.50;;;18.90;99.90;;;;;;5054960;28;20467;-67
2021/07/13 04:29:59;;;;;;;7.20;4.88;;;18.90;99.90;;;;;;5055633;28;20087;-67
2021/07/13 04:32:26;;;;;;;8.00;4.95;;;18.80;99.90;;;;;;5055331;28;20084;-67
2021/07/13 04:34:54;;;;;;;9.93;5.25;;;18.80;99.90;;;;;;5054800;28;20087;-67
2021/07/13 04:37:21;;;;;;;7.93;4.63;;;18.80;99.90;;;;;;5055752;28;20052;-68
2021/07/13 04:39:48;;;;;;;7.88;5.18;;;18.90;99.90;;;;;;5055367;28;20056;-67
2021/07/13 04:42:15;;;;;;;10.10;5.00;;;18.90;99.90;;;;;;5054607;28;20106;-67
2021/07/13 04:44:42;;;;;;;10.27;5.68;;;19.00;99.90;;;;;;5055252;28;20053;-67
2021/07/13 04:47:09;;;;;;;7.70;4.82;;;19.00;99.90;;;;;;5055660;28;20056;-67
2021/07/13 04:49:36;;;;;;;10.23;5.50;;;18.90;99.90;;;;;;5054939;28;20128;-67
2021/07/13 04:52:06;;;;;;;7.75;4.85;;;18.80;99.90;;;;;;5053230;28;20462;-67
2021/07/13 04:54:34;;;;;;;12.63;5.65;;;18.90;99.90;;;;;;5055699;28;20525;-67
2021/07/13 04:57:01;;;;;;;10.40;4.72;;;18.80;99.90;;;;;;5057440;28;20080;-68
2021/07/13 04:59:28;;;;;;;9.30;4.97;;;18.90;99.90;;;;;;5057013;28;20146;-68
2021/07/13 05:01:55;;;;;;;10.25;4.88;;;18.90;99.90;;;;;;5055110;28;20504;-68
2021/07/13 05:04:22;;;;;;;7.68;4.20;;;19.00;99.90;;;;;;5055886;28;20053;-68
2021/07/13 05:06:49;;;;;;;6.78;4.68;;;19.10;99.90;;;;;;5055803;28;20052;-68
2021/07/13 05:09:18;;;;;;;9.10;4.53;;;19.10;99.90;;;;;;5053965;28;20105;-68
2021/07/13 05:11:45;;;;;;;10.02;4.40;;;19.20;99.90;;;;;;5054755;28;20505;-68
2021/07/13 05:14:12;;;;;;;11.38;5.03;;;19.20;99.90;;;;;;5054207;28;21131;-68
2021/07/13 05:16:39;;;;;;;9.43;4.53;;;19.20;99.90;;;;;;5054804;28;20105;-68
2021/07/13 05:19:08;;;;;;;7.93;4.63;;;19.20;99.90;;;;;;5054734;28;20048;-68
2021/07/13 05:21:35;;;;;;;11.02;4.30;;;19.10;99.90;;;;;;5053876;28;20048;-68
2021/07/13 05:24:02;;;;;;;10.85;4.85;;;19.40;99.90;;;;;;5054637;28;20574;-68
2021/07/13 05:26:31;;;;;;;10.38;4.30;;;19.40;99.90;;;;;;5054564;28;20091;-68
2021/07/13 05:29:02;;;;;;;9.18;4.97;;;19.50;99.90;;;;;;5053314;28;20523;-68
2021/07/13 05:31:29;;;;;;;9.63;4.80;;;19.50;99.90;;;;;;5054846;28;20048;-68
2021/07/13 05:33:57;;;;;;;8.85;4.13;;;19.60;99.90;;;;;;5053426;28;21286;-68
2021/07/13 05:36:24;;;;;;;10.45;4.38;;;19.70;99.90;;;;;;5054517;28;20052;-68
2021/07/13 05:38:53;;;;;;;7.75;4.20;;;19.60;99.90;;;;;;5053360;28;20052;-68
2021/07/13 05:41:21;;;;;;;10.90;4.20;;;19.70;99.90;;;;;;5054251;28;20061;-68
2021/07/13 05:43:50;;;;;;;7.95;4.25;;;19.80;99.90;;;;;;5053743;28;20045;-68
2021/07/13 05:46:17;;;;;;;8.45;4.30;;;19.80;99.90;;;;;;5054056;28;20052;-68
2021/07/13 05:48:45;;;;;;;8.85;4.18;;;19.70;99.90;;;;;;5053121;28;20623;-68
2021/07/13 05:51:12;;;;;;;7.03;4.30;;;19.90;99.90;;;;;;5053903;28;20048;-68
2021/07/13 05:53:39;;;;;;;6.30;3.97;;;20.00;99.90;;;;;;5053239;28;20450;-68
2021/07/13 05:56:07;;;;;;;8.55;3.85;;;20.10;99.90;;;;;;5049745;28;20459;-68
2021/07/13 05:58:35;;;;;;;6.20;3.70;;;20.10;99.90;;;;;;5052869;28;20059;-67
2021/07/13 06:01:04;;;;;;;8.18;4.40;;;20.20;99.90;;;;;;5053357;28;20048;-67
2021/07/13 06:03:31;;;;;;;6.60;4.32;;;20.40;99.90;;;;;;5053150;28;20080;-67
2021/07/13 06:05:58;;;;;;;7.38;4.20;;;20.50;99.90;;;;;;5054922;28;20117;-66
2021/07/13 06:08:25;;;;;;;10.20;4.25;;;20.50;99.90;;;;;;5053923;28;20060;-67
2021/07/13 06:10:52;;;;;;;8.30;4.13;;;20.70;99.90;;;;;;5053408;28;20423;-67
2021/07/13 06:13:20;;;;;;;8.13;4.07;;;20.80;99.90;;;;;;5053964;28;20052;-67
2021/07/13 06:15:47;;;;;;;8.40;4.10;;;20.80;99.90;;;;;;5052922;28;20084;-67
2021/07/13 06:18:18;;;;;;;7.43;3.65;;;20.90;99.90;;;;;;5053116;28;20509;-67
2021/07/13 06:20:45;;;;;;;9.40;4.18;;;21.00;99.90;;;;;;5052949;28;20057;-67
2021/07/13 06:23:12;;;;;;;16.20;3.60;;;21.00;99.90;;;;;;5052637;28;20052;-67
2021/07/13 06:25:39;;;;;;;11.55;4.18;;;21.10;99.90;;;;;;5052669;28;20049;-67
2021/07/13 06:28:07;;;;;;;7.82;3.60;;;21.20;99.90;;;;;;5051932;28;20056;-67
2021/07/13 06:30:35;;;;;;;7.38;4.00;;;21.20;99.90;;;;;;5052986;28;21045;-67
2021/07/13 06:33:02;;;;;;;7.50;4.20;;;21.10;99.90;;;;;;5052555;28;20401;-67
2021/07/13 06:35:30;;;;;;;7.70;3.67;;;21.30;99.90;;;;;;5051925;28;20106;-67
2021/07/13 06:37:59;;;;;;;9.38;4.10;;;21.40;99.90;;;;;;5052262;28;20079;-67
2021/07/13 06:40:26;;;;;;;19.00;4.50;;;21.50;99.90;;;;;;5051211;28;20164;-67
2021/07/13 06:42:53;;;;;;;10.68;4.53;;;21.60;99.90;;;;;;5052360;28;20083;-67
2021/07/13 06:45:20;;;;;;;8.25;4.05;;;21.70;99.90;;;;;;5052037;28;20471;-67
2021/07/13 06:47:48;;;;;;;7.57;3.40;;;21.70;99.90;;;;;;5052159;28;20092;-67
2021/07/13 06:50:15;;;;;;;8.48;3.53;;;21.80;99.90;;;;;;5052659;28;20056;-66
2021/07/13 06:52:43;;;;;;;6.63;3.70;;;22.00;99.90;;;;;;5053401;28;20052;-67
2021/07/13 06:55:12;;;;;;;6.50;3.47;;;22.10;99.90;;;;;;5052167;28;20125;-67
2021/07/13 06:57:39;;;;;;;7.35;3.65;;;22.10;99.90;;;;;;5052129;28;20084;-67
2021/07/13 07:00:08;;;;;;;6.57;4.07;;;22.10;99.90;;;;;;5052902;28;20106;-67
2021/07/13 07:02:35;;;;;;;7.15;3.38;;;22.30;99.90;;;;;;5052797;28;20138;-69
2021/07/13 07:05:02;;;;;;;5.90;3.75;;;22.40;99.90;;;;;;5053087;28;20457;-67
2021/07/13 07:07:29;;;;;;;6.65;4.07;;;22.40;99.90;;;;;;5052555;28;20062;-66
2021/07/13 07:09:57;;;;;;;7.00;3.55;;;22.50;99.90;;;;;;5052911;28;20196;-69
2021/07/13 07:12:24;;;;;;;5.78;3.30;;;22.50;99.90;;;;;;5052432;28;20399;-68
2021/07/13 07:14:51;;;;;;;5.45;3.35;;;22.60;99.90;;;;;;5052983;28;20578;-69
2021/07/13 07:17:18;;;;;;;6.97;4.13;;;22.70;99.90;;;;;;5051897;28;20091;-69
2021/07/13 07:19:45;;;;;;;5.32;3.20;;;22.50;99.90;;;;;;5051771;28;20048;-69
2021/07/13 07:22:12;;;;;;;7.78;3.88;;;22.60;99.90;;;;;;5051457;28;20493;-68
2021/07/13 07:24:39;;;;;;;6.00;3.88;;;22.80;99.90;;;;;;5051384;28;20388;-68
2021/07/13 07:27:07;;;;;;;6.30;3.33;;;22.90;99.90;;;;;;5052083;28;20497;-69
2021/07/13 07:29:34;;;;;;;8.25;3.58;;;22.90;99.90;;;;;;5052736;28;20086;-69
2021/07/13 07:32:01;;;;;;;8.55;3.45;;;23.00;99.90;;;;;;5051883;28;20060;-68
2021/07/13 07:34:28;;;;;;;6.63;3.60;;;23.00;99.90;;;;;;5051266;28;20510;-68
2021/07/13 07:36:55;;;;;;;9.38;3.55;;;23.00;99.90;;;;;;5052108;28;20500;-68
2021/07/13 07:39:22;;;;;;;9.55;4.22;;;22.90;99.90;;;;;;5050084;28;20066;-69
2021/07/13 07:41:52;;;;;;;7.30;3.38;;;23.10;99.90;;;;;;5052244;28;20049;-69
2021/07/13 07:44:23;;;;;;;6.18;3.72;;;23.30;99.90;;;;;;5051444;28;20064;-69
2021/07/13 07:46:50;;;;;;;5.70;3.40;;;23.40;99.90;;;;;;5051948;28;20135;-68
2021/07/13 07:49:17;;;;;;;6.13;3.53;;;23.40;99.90;;;;;;5050679;28;20141;-69
2021/07/13 07:51:44;;;;;;;6.20;3.35;;;23.50;99.90;;;;;;5051533;28;20053;-69
2021/07/13 07:54:11;;;;;;;5.90;3.95;;;23.60;99.90;;;;;;5050386;28;20573;-69
2021/07/13 07:56:38;;;;;;;6.68;3.50;;;23.70;99.90;;;;;;5050737;28;20504;-69
2021/07/13 07:59:05;;;;;;;7.63;3.70;;;23.80;99.90;;;;;;5050379;28;20131;-69
2021/07/13 08:01:34;;;;;;;8.57;3.80;;;23.90;99.90;;;;;;5051893;28;20048;-68
2021/07/13 08:04:01;;;;;;;7.82;3.40;;;24.00;99.90;;;;;;5052440;28;20432;-69
2021/07/13 08:06:28;;;;;;;7.35;3.90;;;24.00;99.90;;;;;;5050803;28;20052;-69
2021/07/13 08:08:55;;;;;;;5.90;3.67;;;24.00;99.90;;;;;;5047713;28;20090;-69
2021/07/13 08:11:22;;;;;;;8.93;3.80;;;23.90;99.90;;;;;;5049687;28;20076;-69
2021/07/13 08:13:49;;;;;;;6.68;3.70;;;23.90;99.90;;;;;;5050524;28;20056;-69
2021/07/13 08:16:16;;;;;;;6.45;3.80;;;23.80;99.90;;;;;;5050340;28;20048;-69
2021/07/13 08:18:45;;;;;;;7.07;3.58;;;23.80;99.90;;;;;;5049803;28;20048;-69
2021/07/13 08:21:15;;;;;;;6.85;3.90;;;23.90;99.90;;;;;;5046048;28;20049;-69
2021/07/13 08:23:42;;;;;;;8.02;3.63;;;24.00;99.90;;;;;;5051227;28;20080;-69
2021/07/13 08:26:09;;;;;;;6.75;3.80;;;24.30;99.90;;;;;;5052472;28;20088;-69
2021/07/13 08:28:36;;;;;;;5.50;3.38;;;24.40;99.90;;;;;;5053145;28;20052;-68
2021/07/13 08:31:03;;;;;;;7.55;3.72;;;24.60;99.90;;;;;;5052463;28;20048;-70
2021/07/13 08:33:30;;;;;;;19.45;3.90;;;24.70;99.90;;;;;;5050797;28;20044;-70
2021/07/13 08:35:58;;;;;;;7.28;4.03;;;24.80;99.90;;;;;;5052835;28;20048;-70
2021/07/13 08:38:25;;;;;;;6.93;3.72;;;25.00;99.90;;;;;;5051196;28;20084;-70
2021/07/13 08:40:52;;;;;;;6.63;3.95;;;25.30;99.90;;;;;;5051961;28;20614;-71
2021/07/13 08:43:23;;;;;;;7.25;3.78;;;25.40;99.90;;;;;;5052292;28;20076;-70
2021/07/13 08:45:52;;;;;;;6.97;4.07;;;25.50;99.90;;;;;;5052198;28;20398;-70
2021/07/13 08:48:21;;;;;;;8.00;4.05;;;25.70;99.90;;;;;;5051774;28;20091;-71
2021/07/13 08:50:49;;;;;;;6.35;3.67;;;25.90;99.90;;;;;;5052396;28;20052;-71
2021/07/13 08:53:17;;;;;;;8.63;3.55;;;26.20;99.90;;;;;;5051449;28;20056;-70
2021/07/13 08:55:44;;;;;;;6.85;3.63;;;26.60;99.90;;;;;;5053093;28;20094;-70
2021/07/13 08:58:13;;;;;;;12.80;3.90;;;26.90;99.90;;;;;;5052075;28;20117;-70
2021/07/13 09:00:41;;;;;;;7.25;3.70;;;27.30;99.90;;;;;;5051468;28;20060;-70
2021/07/13 09:03:12;;;;;;;8.00;4.13;;;27.70;99.90;;;;;;5051329;28;20102;-71
2021/07/13 09:05:44;;;;;;;8.20;4.47;;;28.10;99.90;;;;;;5054897;28;21227;-71
2021/07/13 09:08:17;;;;;;;6.30;3.95;;;28.50;99.90;;;;;;5053781;28;20116;-71
2021/07/13 09:11:04;;;;;;;9.27;4.00;;;28.50;99.90;;;;;;5054885;28;20056;-72
2021/07/13 09:13:34;;;;;;;8.48;4.35;;;29.00;99.90;;;;;;5055652;28;20095;-70
2021/07/13 09:16:04;;;;;;;6.80;4.40;;;28.60;99.90;;;;;;5055819;28;20052;-70
2021/07/13 09:18:32;;;;;;;8.27;4.85;;;28.50;99.90;;;;;;5055223;28;20145;-72
2021/07/13 09:21:21;;;;;;;7.43;4.45;;;27.50;99.90;;;;;;5055868;28;20052;-71
2021/07/13 09:24:10;;;;;;;9.65;4.32;;;28.00;99.90;;;;;;5050020;28;20060;-71
2021/07/13 09:26:56;;;;;;;9.60;4.47;;;28.60;99.90;;;;;;5053346;28;20056;-71
2021/07/13 09:29:35;;;;;;;8.55;4.78;;;28.50;99.90;;;;;;5052892;28;20118;-69
2021/07/13 09:32:21;;;;;;;8.60;4.93;;;28.40;99.90;;;;;;5052275;28;20076;-71
2021/07/13 09:34:49;;;;;;;9.32;4.63;;;28.30;99.90;;;;;;5052139;28;20084;-71
2021/07/13 09:37:22;;;;;;;7.97;4.57;;;28.50;99.90;;;;;;5051693;28;20055;-70
2021/07/13 09:40:01;;;;;;;6.80;4.80;;;28.50;99.90;;;;;;5051427;28;20052;-69
2021/07/13 09:42:30;;;;;;;10.13;4.80;;;28.40;99.90;;;;;;5051840;28;20177;-70
2021/07/13 09:45:15;;;;;;;8.98;4.97;;;28.10;99.90;;;;;;5052768;28;20087;-70
2021/07/13 09:47:42;;;;;;;8.13;5.13;;;27.40;99.90;;;;;;5052497;28;20114;-69
2021/07/13 09:50:10;;;;;;;9.07;5.10;;;27.20;99.90;;;;;;5051508;28;20424;-70
2021/07/13 09:52:38;;;;;;;10.05;5.00;;;27.30;99.90;;;;;;5052069;28;20048;-70
2021/07/13 09:55:16;;;;;;;7.82;5.15;;;27.40;99.90;;;;;;5052561;28;20504;-69
2021/07/13 09:57:43;;;;;;;9.85;5.32;;;27.70;99.90;;;;;;5051957;28;20053;-70
2021/07/13 10:00:11;;;;;;;10.13;5.38;;;28.70;99.90;;;;;;5052208;28;20093;-70
2021/07/13 10:02:39;;;;;;;9.18;4.80;;;28.70;99.90;;;;;;5050441;28;20084;-70
2021/07/13 10:05:07;;;;;;;8.07;5.18;;;28.40;99.90;;;;;;5048290;28;20236;-70
2021/07/13 10:07:35;;;;;;;11.27;5.75;;;28.40;99.90;;;;;;5050009;28;20105;-71
2021/07/13 10:10:05;;;;;;;7.07;4.78;;;28.60;99.90;;;;;;5053006;28;20095;-70
2021/07/13 10:12:33;;;;;;;6.75;4.82;;;28.50;99.90;;;;;;5053549;28;20391;-70
2021/07/13 10:15:01;;;;;;;10.77;4.90;;;28.50;99.90;;;;;;5054270;28;20424;-71
2021/07/13 10:17:29;;;;;;;7.53;5.05;;;28.40;99.90;;;;;;5053574;28;20048;-70
2021/07/13 10:19:59;;;;;;;8.10;4.65;;;28.40;99.90;;;;;;5048201;28;20152;-70
2021/07/13 10:22:28;;;;;;;9.13;4.82;;;28.90;99.90;;;;;;5050682;28;20048;-70
2021/07/13 10:24:57;;;;;;;7.78;5.45;;;28.70;99.90;;;;;;5049481;28;20482;-70
2021/07/13 10:27:29;;;;;;;7.38;4.82;;;29.00;99.90;;;;;;5048077;28;20059;-70
2021/07/13 10:30:00;;;;;;;6.53;4.40;;;28.70;99.90;;;;;;5046865;28;20056;-71
2021/07/13 10:32:38;;;;;;;8.85;4.63;;;28.00;99.90;;;;;;5045944;28;20088;-71
2021/07/13 10:35:15;;;;;;;7.57;5.55;;;28.40;99.90;;;;;;5046631;28;20080;-71
2021/07/13 10:37:45;;;;;;;10.00;4.75;;;28.30;99.90;;;;;;5046636;28;20114;-70
2021/07/13 10:40:14;;;;;;;8.75;5.00;;;28.40;99.90;;;;;;5045391;28;20131;-71
2021/07/13 10:42:53;;;;;;;8.70;4.55;;;29.10;99.90;;;;;;5046433;28;20052;-71
2021/07/13 10:45:28;;;;;;;10.43;4.82;;;29.80;99.90;;;;;;5045638;28;20076;-70
2021/07/13 10:48:10;;;;;;;9.02;5.25;;;30.10;99.90;;;;;;5046664;28;20048;-71
2021/07/13 10:50:52;;;;;;;9.23;5.50;;;30.20;99.90;;;;;;5048729;28;20056;-70
2021/07/13 10:53:23;;;;;;;10.07;5.20;;;30.70;99.90;;;;;;5049947;28;20076;-70
2021/07/13 10:56:12;;;;;;;7.05;5.07;;;30.40;99.90;;;;;;5051471;28;20070;-71
2021/07/13 10:58:47;;;;;;;10.10;5.78;;;30.40;99.90;;;;;;5050310;28;20080;-70
2021/07/13 11:01:32;;;;;;;6.85;5.00;;;29.20;99.90;;;;;;5049890;28;20402;-70
2021/07/13 11:04:05;;;;;;;8.75;5.82;;;29.00;99.90;;;;;;5049226;28;20060;-69
2021/07/13 11:06:56;;;;;;;10.02;5.32;;;29.00;99.90;;;;;;5048051;28;20049;-70
2021/07/13 11:09:38;;;;;;;9.77;5.85;;;29.30;99.90;;;;;;5049510;28;20066;-71
2021/07/13 11:12:10;;;;;;;8.00;5.25;;;29.00;99.90;;;;;;5049146;28;20084;-71
2021/07/13 11:14:55;;;;;;;7.55;5.68;;;29.70;99.90;;;;;;5041475;28;20101;-71
2021/07/13 11:17:29;;;;;;;10.52;5.63;;;30.00;99.90;;;;;;5041535;28;20114;-70
2021/07/13 11:20:09;;;;;;;10.13;5.57;;;30.20;99.90;;;;;;5042117;28;21112;-69
2021/07/13 11:22:38;;;;;;;7.18;5.53;;;29.90;99.90;;;;;;5043639;28;20056;-70
2021/07/13 11:25:06;;;;;;;11.85;5.70;;;29.80;99.90;;;;;;5041876;28;20076;-71
2021/07/13 11:27:35;;;;;;;11.65;6.10;;;30.40;99.90;;;;;;5040493;28;20423;-71
2021/07/13 11:30:02;;;;;;;10.25;5.93;;;30.70;99.90;;;;;;5044746;28;20040;-71
2021/07/13 11:32:30;;;;;;;10.35;5.60;;;31.00;99.90;;;;;;5047949;28;20693;-70
2021/07/13 11:34:57;;;;;;;8.85;5.65;;;30.50;99.90;;;;;;5048828;28;20044;-71
2021/07/13 11:37:25;;;;;;;8.93;5.32;;;31.20;99.90;;;;;;5048749;28;20071;-71
2021/07/13 11:40:07;;;;;;;11.43;5.82;;;32.30;99.90;;;;;;5052458;28;20393;-70
2021/07/13 11:42:35;;;;;;;10.88;5.53;;;32.30;99.90;;;;;;5049696;28;20052;-70
2021/07/13 11:45:05;;;;;;;10.35;6.03;;;31.90;99.90;;;;;;5047141;28;20044;-70
2021/07/13 11:47:33;;;;;;;8.57;5.47;;;31.70;99.90;;;;;;5047428;28;20102;-71
2021/07/13 11:50:01;;;;;;;14.63;6.28;;;32.20;99.90;;;;;;5048230;28;20477;-71
2021/07/13 11:52:29;;;;;;;7.85;5.68;;;31.60;99.90;;;;;;5049071;28;20570;-73
2021/07/13 11:54:58;;;;;;;6.32;5.07;;;31.30;99.90;;;;;;5047517;28;20048;-70
2021/07/13 11:57:26;;;;;;;7.15;5.63;;;30.70;99.90;;;;;;5049392;28;20425;-71
2021/07/13 11:59:52;;;;;;;9.50;5.68;;;30.20;99.90;;;;;;5047063;28;20076;-70
2021/07/13 12:02:19;;;;;;;9.50;5.75;;;29.90;99.90;;;;;;5047564;28;20129;-69
2021/07/13 12:04:50;;;;;;;14.82;6.32;;;29.70;99.90;;;;;;5046931;28;20051;-71
2021/07/13 12:07:19;;;;;;;9.13;5.47;;;30.10;99.90;;;;;;5047249;28;20550;-73
2021/07/13 12:09:46;;;;;;;7.88;5.88;;;29.80;99.90;;;;;;5047840;28;20055;-72
2021/07/13 12:12:14;;;;;;;7.00;5.68;;;29.20;99.90;;;;;;5047793;28;20143;-69
2021/07/13 12:14:43;;;;;;;13.35;5.63;;;29.10;99.90;;;;;;5046925;28;20134;-70
2021/07/13 12:17:10;;;;;;;8.40;6.15;;;28.90;99.90;;;;;;5045775;28;20137;-69
2021/07/13 12:19:38;;;;;;;8.77;5.47;;;28.80;99.90;;;;;;5044980;28;20512;-70
2021/07/13 12:22:08;;;;;;;9.50;6.60;;;28.90;99.90;;;;;;5046711;28;20440;-70
2021/07/13 12:24:37;;;;;;;8.35;6.10;;;28.60;99.90;;;;;;5046655;28;20098;-73
2021/07/13 12:27:06;;;;;;;7.53;6.03;;;28.40;99.90;;;;;;5039788;28;20040;-71
2021/07/13 12:29:39;;;;;;;7.72;5.70;;;28.40;99.90;;;;;;5046543;28;20048;-70
2021/07/13 12:32:08;;;;;;;11.98;6.00;;;28.50;99.90;;;;;;5049053;28;20132;-71
2021/07/13 12:34:41;;;;;;;7.10;5.50;;;28.50;99.90;;;;;;5048800;28;20052;-70
2021/07/13 12:37:15;;;;;;;10.60;5.85;;;28.70;99.90;;;;;;5048192;28;20887;-72
2021/07/13 12:39:44;;;;;;;8.48;6.30;;;29.00;99.90;;;;;;5051541;28;20102;-70
2021/07/13 12:42:16;;;;;;;8.35;5.95;;;28.80;99.90;;;;;;5052225;28;20048;-71
2021/07/13 12:44:49;;;;;;;17.40;6.20;;;28.80;99.90;;;;;;5053662;28;20116;-71
2021/07/13 12:47:38;;;;;;;8.57;6.40;;;28.50;99.90;;;;;;5052661;28;20102;-71
2021/07/13 12:50:21;;;;;;;11.65;6.30;;;28.60;99.90;;;;;;5052072;28;20056;-71
2021/07/13 12:52:55;;;;;;;9.88;6.18;;;28.70;99.90;;;;;;5052519;28;20110;-71
2021/07/13 12:55:30;;;;;;;12.57;6.63;;;28.50;99.90;;;;;;5053193;28;20060;-71
2021/07/13 12:58:09;;;;;;;8.53;6.07;;;28.40;99.90;;;;;;5054241;28;20052;-73